Time;durP1;ratioP1;P1;durP2;ratioP2;P2;SDS_P1;SDS_P2;PMS_P1;PMS_P2;Temp;Humidity;BMP_temperature;BMP_pressure;BME280_temperature;BME280_humidity;BME280_pressure;Samples;Min_cycle;Max_cycle;Signal;HPM_P1;HPM_P2
2021/06/25 00:00:19;;;;;;;10.87;3.77;;;27.50;52.20;;;;;;6277071;28;20229;-61
2021/06/25 00:03:22;;;;;;;7.77;3.80;;;27.40;52.90;;;;;;6275724;28;20550;-62
2021/06/25 00:06:27;;;;;;;8.80;4.17;;;27.40;52.90;;;;;;6276046;28;20223;-63
2021/06/25 00:09:30;;;;;;;7.80;3.70;;;27.40;53.20;;;;;;6277696;28;20226;-60
2021/06/25 00:12:33;;;;;;;8.20;4.10;;;27.40;52.80;;;;;;6273220;28;20223;-60
2021/06/25 00:15:37;;;;;;;11.20;4.17;;;27.30;52.70;;;;;;6277587;28;20218;-61
2021/06/25 00:18:40;;;;;;;9.40;4.00;;;27.20;53.00;;;;;;6277769;28;20245;-62
2021/06/25 00:21:45;;;;;;;4.63;3.53;;;27.10;53.40;;;;;;6278114;28;20242;-61
2021/06/25 00:24:48;;;;;;;6.23;4.27;;;27.10;54.20;;;;;;6278100;28;20230;-60
2021/06/25 00:27:51;;;;;;;6.73;4.00;;;27.00;54.20;;;;;;6278145;28;20227;-61
2021/06/25 00:30:55;;;;;;;10.97;3.33;;;27.00;54.20;;;;;;6277386;28;20227;-61
2021/06/25 00:33:58;;;;;;;6.43;3.23;;;26.80;54.40;;;;;;6277413;28;20207;-61
2021/06/25 00:37:03;;;;;;;7.63;4.50;;;26.80;54.90;;;;;;6278195;28;20210;-62
2021/06/25 00:40:07;;;;;;;10.77;4.43;;;26.80;55.00;;;;;;6277348;28;20222;-62
2021/06/25 00:43:10;;;;;;;6.20;3.70;;;26.80;55.30;;;;;;6277488;28;20215;-61
2021/06/25 00:46:15;;;;;;;6.47;3.67;;;26.70;55.50;;;;;;6276952;28;20241;-61
2021/06/25 00:49:19;;;;;;;7.47;4.10;;;26.70;55.30;;;;;;6277519;28;20246;-61
2021/06/25 00:52:23;;;;;;;8.80;4.10;;;26.70;55.10;;;;;;6277152;28;20234;-62
2021/06/25 00:55:29;;;;;;;7.00;3.93;;;26.60;55.60;;;;;;6277815;28;20219;-61
2021/06/25 00:58:32;;;;;;;11.27;5.10;;;26.50;55.80;;;;;;6277165;28;20246;-61
2021/06/25 01:01:35;;;;;;;12.80;5.00;;;26.50;56.70;;;;;;6277554;28;20337;-60
2021/06/25 01:04:39;;;;;;;5.57;3.83;;;26.40;56.40;;;;;;6277300;28;20222;-61
2021/06/25 01:07:45;;;;;;;8.40;4.13;;;26.30;56.10;;;;;;6276346;28;20226;-61
2021/06/25 01:10:49;;;;;;;5.97;3.93;;;26.20;56.80;;;;;;6276445;28;20238;-62
2021/06/25 01:13:52;;;;;;;8.77;4.37;;;26.20;57.70;;;;;;6273452;28;20219;-63
2021/06/25 01:16:56;;;;;;;7.17;4.07;;;26.20;57.60;;;;;;6276176;28;20215;-63
2021/06/25 01:20:00;;;;;;;8.70;3.70;;;26.20;57.80;;;;;;6274779;28;20563;-61
2021/06/25 01:23:05;;;;;;;5.87;4.10;;;26.10;57.80;;;;;;6270772;28;20227;-60
2021/06/25 01:26:08;;;;;;;5.80;4.33;;;26.00;58.30;;;;;;6273179;28;20227;-62
2021/06/25 01:29:12;;;;;;;6.73;4.60;;;25.90;58.50;;;;;;6273728;28;20253;-61
2021/06/25 01:32:15;;;;;;;5.60;3.80;;;25.70;59.00;;;;;;6274716;28;20666;-61
2021/06/25 01:35:19;;;;;;;7.73;3.87;;;25.70;59.30;;;;;;6274722;28;20230;-61
2021/06/25 01:38:24;;;;;;;9.20;5.20;;;25.50;59.00;;;;;;6274912;28;20219;-61
2021/06/25 01:41:27;;;;;;;10.47;4.90;;;25.50;59.00;;;;;;6276069;28;20231;-61
2021/06/25 01:44:31;;;;;;;5.87;3.70;;;25.50;59.00;;;;;;6274073;28;20233;-61
2021/06/25 01:47:36;;;;;;;6.93;4.30;;;25.50;59.50;;;;;;6275464;28;20239;-60
2021/06/25 01:50:42;;;;;;;7.07;5.07;;;25.50;59.60;;;;;;6275378;28;20686;-60
2021/06/25 01:53:47;;;;;;;5.00;3.73;;;25.50;59.60;;;;;;6275562;28;20223;-60
2021/06/25 01:56:50;;;;;;;12.43;4.30;;;25.40;59.60;;;;;;6274959;28;20566;-60
2021/06/25 01:59:53;;;;;;;9.03;3.90;;;25.40;59.80;;;;;;6274999;28;20555;-63
2021/06/25 02:02:56;;;;;;;7.90;4.63;;;25.30;59.80;;;;;;6275309;28;20234;-63
2021/06/25 02:06:00;;;;;;;6.73;4.27;;;25.20;60.30;;;;;;6275171;28;20223;-63
2021/06/25 02:09:05;;;;;;;9.87;4.97;;;25.20;60.20;;;;;;6274474;28;20238;-62
2021/06/25 02:12:09;;;;;;;8.47;3.83;;;25.10;60.60;;;;;;6274187;28;20234;-62
2021/06/25 02:15:13;;;;;;;6.27;4.07;;;25.10;60.50;;;;;;6273867;28;20693;-60
2021/06/25 02:18:16;;;;;;;7.10;4.40;;;25.20;60.80;;;;;;6272310;28;20220;-60
2021/06/25 02:21:19;;;;;;;6.50;3.80;;;25.10;61.70;;;;;;6274017;28;20231;-63
2021/06/25 02:24:24;;;;;;;8.03;5.07;;;25.10;61.10;;;;;;6273155;28;20687;-63
2021/06/25 02:27:27;;;;;;;9.50;4.70;;;24.90;61.30;;;;;;6269514;28;20223;-61
2021/06/25 02:30:31;;;;;;;9.27;3.83;;;24.80;61.50;;;;;;6271292;28;20683;-63
2021/06/25 02:33:35;;;;;;;12.63;4.53;;;24.60;62.10;;;;;;6272491;28;20227;-63
2021/06/25 02:36:38;;;;;;;7.60;4.43;;;24.60;62.60;;;;;;6272866;28;20223;-62
2021/06/25 02:39:43;;;;;;;5.03;4.00;;;24.50;62.50;;;;;;6274169;28;20690;-61
2021/06/25 02:42:46;;;;;;;6.33;3.70;;;24.50;62.60;;;;;;6272148;28;20226;-60
2021/06/25 02:45:49;;;;;;;9.33;4.20;;;24.40;62.40;;;;;;6274155;28;20215;-60
2021/06/25 02:48:53;;;;;;;7.47;4.90;;;24.40;62.30;;;;;;6274084;28;20671;-62
2021/06/25 02:51:56;;;;;;;7.97;4.23;;;24.40;61.90;;;;;;6273715;28;20239;-62
2021/06/25 02:55:00;;;;;;;8.07;4.13;;;24.30;61.80;;;;;;6270725;28;20220;-62
2021/06/25 02:58:04;;;;;;;8.73;4.77;;;24.30;62.30;;;;;;6271469;28;20223;-62
2021/06/25 03:01:07;;;;;;;7.27;4.33;;;24.30;62.60;;;;;;6272040;28;20196;-60
2021/06/25 03:04:10;;;;;;;5.17;4.20;;;24.30;63.00;;;;;;6272015;28;20203;-62
2021/06/25 03:07:13;;;;;;;6.10;4.97;;;24.30;63.20;;;;;;6272559;28;20203;-62
2021/06/25 03:10:18;;;;;;;11.17;4.50;;;24.20;63.60;;;;;;6270976;28;20219;-59
2021/06/25 03:13:22;;;;;;;8.93;5.33;;;24.20;63.90;;;;;;6273850;28;20222;-63
2021/06/25 03:16:25;;;;;;;10.37;4.47;;;24.10;64.00;;;;;;6273946;28;20228;-61
2021/06/25 03:19:28;;;;;;;11.70;4.97;;;24.10;64.50;;;;;;6273515;28;20301;-59
2021/06/25 03:22:31;;;;;;;5.97;4.43;;;24.10;64.90;;;;;;6271891;28;20700;-62
2021/06/25 03:25:37;;;;;;;11.33;5.03;;;24.10;65.10;;;;;;6273640;28;20231;-61
2021/06/25 03:28:40;;;;;;;6.20;4.53;;;24.10;65.40;;;;;;6264560;28;20228;-58
2021/06/25 03:31:43;;;;;;;7.57;4.60;;;24.10;65.50;;;;;;6273503;28;20235;-61
2021/06/25 03:34:47;;;;;;;12.47;5.00;;;24.10;65.60;;;;;;6271727;28;20560;-61
2021/06/25 03:37:50;;;;;;;8.73;5.63;;;24.10;66.00;;;;;;6273303;28;21050;-64
2021/06/25 03:40:54;;;;;;;5.73;4.33;;;24.10;66.30;;;;;;6273820;28;20223;-62
2021/06/25 03:43:58;;;;;;;10.00;5.30;;;24.10;66.70;;;;;;6273192;28;20588;-61
2021/06/25 03:47:01;;;;;;;8.43;5.17;;;24.10;66.80;;;;;;6271676;28;20571;-61
2021/06/25 03:50:06;;;;;;;10.40;5.13;;;24.10;67.60;;;;;;6272974;28;20698;-60
2021/06/25 03:53:09;;;;;;;8.27;4.80;;;24.10;67.80;;;;;;6273202;28;20234;-59
2021/06/25 03:56:15;;;;;;;8.10;5.07;;;24.10;67.80;;;;;;6273413;28;20223;-62
2021/06/25 03:59:18;;;;;;;11.17;4.97;;;24.10;68.30;;;;;;6271849;28;20234;-62
2021/06/25 04:02:21;;;;;;;6.10;5.00;;;24.10;68.50;;;;;;6272938;28;20560;-62
2021/06/25 04:05:25;;;;;;;6.20;4.40;;;24.10;68.40;;;;;;6273350;28;20223;-62
2021/06/25 04:08:29;;;;;;;8.20;5.30;;;24.20;68.60;;;;;;6273044;28;20231;-61
2021/06/25 04:11:34;;;;;;;7.00;5.67;;;24.20;69.10;;;;;;6271350;28;20664;-62
2021/06/25 04:14:37;;;;;;;12.10;5.60;;;24.20;70.00;;;;;;6273267;28;20232;-61
2021/06/25 04:17:41;;;;;;;14.70;5.77;;;24.30;70.40;;;;;;6272823;28;20231;-61
2021/06/25 04:20:45;;;;;;;8.33;5.73;;;24.40;70.70;;;;;;6275501;28;20246;-62
2021/06/25 04:23:48;;;;;;;8.50;5.73;;;24.40;71.10;;;;;;6278168;28;20238;-61
2021/06/25 04:26:53;;;;;;;6.77;5.60;;;24.40;71.60;;;;;;6278395;28;20550;-61
2021/06/25 04:29:56;;;;;;;7.67;6.70;;;24.50;71.50;;;;;;6277911;28;20232;-61
2021/06/25 04:33:01;;;;;;;8.57;6.00;;;24.50;73.50;;;;;;6273581;28;20659;-61
2021/06/25 04:36:05;;;;;;;14.23;7.00;;;24.70;73.20;;;;;;6277719;28;20235;-61
2021/06/25 04:39:08;;;;;;;10.40;6.50;;;24.70;73.50;;;;;;6277799;28;20679;-59
2021/06/25 04:42:13;;;;;;;9.00;8.10;;;24.80;72.90;;;;;;6277567;28;20996;-60
2021/06/25 04:45:16;;;;;;;10.83;7.70;;;24.90;75.70;;;;;;6277845;28;20224;-62
2021/06/25 04:48:19;;;;;;;8.93;8.10;;;25.00;76.10;;;;;;6277289;28;20574;-60
2021/06/25 04:51:22;;;;;;;14.70;7.53;;;25.10;76.80;;;;;;6277865;28;20234;-62
2021/06/25 04:54:26;;;;;;;8.73;7.90;;;25.10;77.10;;;;;;6277360;28;20242;-60
2021/06/25 04:57:30;;;;;;;9.90;8.40;;;25.10;78.80;;;;;;6277731;28;20231;-62
2021/06/25 05:00:33;;;;;;;9.63;8.63;;;24.90;80.10;;;;;;6277631;28;20231;-62
2021/06/25 05:03:37;;;;;;;15.10;9.47;;;25.10;80.50;;;;;;6276879;28;20219;-62
2021/06/25 05:06:40;;;;;;;12.80;8.27;;;25.00;81.50;;;;;;6277413;28;20231;-61
2021/06/25 05:09:43;;;;;;;15.63;11.20;;;25.00;82.70;;;;;;6276947;28;20231;-59
2021/06/25 05:12:48;;;;;;;13.07;9.33;;;25.00;83.40;;;;;;6277232;28;20670;-61
2021/06/25 05:15:51;;;;;;;10.17;9.23;;;25.20;83.60;;;;;;6276893;28;20234;-62
2021/06/25 05:18:54;;;;;;;9.37;8.40;;;25.30;83.50;;;;;;6276952;28;20683;-59
2021/06/25 05:21:58;;;;;;;10.00;9.00;;;25.20;84.50;;;;;;6276855;28;20237;-62
2021/06/25 05:25:01;;;;;;;13.43;9.47;;;25.30;84.30;;;;;;6276877;28;20567;-64
2021/06/25 05:28:06;;;;;;;10.40;9.43;;;25.40;84.30;;;;;;6276794;28;20224;-62
2021/06/25 05:31:10;;;;;;;9.87;8.33;;;25.60;83.90;;;;;;6276314;28;20212;-61
2021/06/25 05:34:13;;;;;;;12.53;8.97;;;25.60;83.70;;;;;;6271568;28;20238;-61
2021/06/25 05:37:16;;;;;;;12.67;8.67;;;25.70;83.20;;;;;;6276758;28;20203;-62
2021/06/25 05:40:19;;;;;;;9.70;8.70;;;25.50;84.00;;;;;;6276820;28;20230;-62
2021/06/25 05:43:24;;;;;;;10.50;8.63;;;25.60;84.30;;;;;;6276538;28;20346;-61
2021/06/25 05:46:27;;;;;;;9.40;8.50;;;25.80;84.40;;;;;;6276184;28;20222;-59
2021/06/25 05:49:31;;;;;;;11.37;8.43;;;26.00;83.60;;;;;;6275924;28;20565;-60
2021/06/25 05:52:34;;;;;;;9.07;8.20;;;26.30;82.50;;;;;;6276172;28;20238;-62
2021/06/25 05:55:37;;;;;;;9.77;7.60;;;26.40;80.90;;;;;;6275813;28;20219;-62
2021/06/25 05:58:42;;;;;;;11.47;8.13;;;26.60;79.50;;;;;;6276331;28;20226;-63
2021/06/25 06:01:45;;;;;;;13.73;8.73;;;26.90;79.10;;;;;;6275999;28;20226;-62
2021/06/25 06:04:48;;;;;;;15.00;9.70;;;27.40;77.70;;;;;;6276440;28;20222;-61
2021/06/25 06:07:51;;;;;;;9.10;8.20;;;28.00;75.40;;;;;;6276019;28;20227;-62
2021/06/25 06:10:55;;;;;;;8.57;7.40;;;28.50;73.00;;;;;;6275679;28;20227;-62
2021/06/25 06:13:59;;;;;;;10.10;6.80;;;28.70;71.00;;;;;;6275745;28;20234;-61
2021/06/25 06:17:02;;;;;;;11.03;7.20;;;28.80;70.80;;;;;;6275359;28;20231;-64
2021/06/25 06:20:08;;;;;;;8.43;7.47;;;28.90;70.60;;;;;;6275594;28;20234;-60
2021/06/25 06:33:16;;;;;;;8.70;7.70;;;28.50;67.90;;;;;;6272955;28;20574;-61
2021/06/25 06:36:23;;;;;;;8.83;7.93;;;28.40;68.30;;;;;;6272670;28;20230;-61
2021/06/25 06:39:31;;;;;;;8.60;7.60;;;28.50;67.80;;;;;;6273769;28;20222;-62
2021/06/25 06:42:34;;;;;;;8.80;7.73;;;28.50;69.90;;;;;;6256763;28;20233;-61
2021/06/25 06:45:39;;;;;;;8.17;7.17;;;28.50;69.10;;;;;;6273096;28;20231;-61
2021/06/25 06:48:44;;;;;;;11.57;7.67;;;28.60;68.80;;;;;;6272547;28;20565;-61
2021/06/25 06:51:47;;;;;;;8.17;7.33;;;28.60;67.70;;;;;;6272972;28;20566;-62
2021/06/25 06:54:50;;;;;;;7.80;6.63;;;28.60;67.10;;;;;;6273243;28;20219;-62
2021/06/25 06:57:53;;;;;;;11.13;7.30;;;28.60;66.40;;;;;;6279110;28;20214;-62
2021/06/25 07:00:58;;;;;;;9.27;7.00;;;28.70;66.40;;;;;;6298992;28;20234;-62
2021/06/25 07:04:03;;;;;;;8.53;6.90;;;28.70;67.10;;;;;;6299227;28;20226;-61
2021/06/25 07:07:06;;;;;;;10.03;7.37;;;28.70;66.10;;;;;;6299542;28;20228;-62
2021/06/25 07:10:10;;;;;;;7.63;6.93;;;28.70;65.90;;;;;;6299289;28;20237;-63
2021/06/25 07:13:14;;;;;;;10.50;7.17;;;28.80;65.40;;;;;;6299188;28;20542;-62
2021/06/25 07:16:19;;;;;;;10.03;7.07;;;29.10;64.80;;;;;;6298768;28;20618;-62
2021/06/25 07:19:22;;;;;;;6.50;5.90;;;29.40;63.20;;;;;;6299491;28;20233;-61
2021/06/25 07:22:25;;;;;;;9.52;6.32;;;30.80;61.30;;;;;;6299382;28;20575;-61
2021/06/25 07:25:29;;;;;;;14.50;8.68;;;32.30;58.20;;;;;;6280918;28;20571;-61
2021/06/25 07:28:32;;;;;;;7.47;6.78;;;33.40;55.50;;;;;;6273945;28;20242;-61
2021/06/25 07:31:37;;;;;;;7.15;6.38;;;33.70;54.90;;;;;;6273783;28;20558;-61
2021/06/25 07:34:40;;;;;;;7.80;6.95;;;35.10;53.20;;;;;;6273854;28;20231;-62
2021/06/25 07:37:43;;;;;;;7.00;6.47;;;36.60;50.30;;;;;;6273976;28;20661;-62
2021/06/25 07:40:47;;;;;;;6.65;5.85;;;37.20;48.20;;;;;;6273866;28;20234;-61
2021/06/25 07:43:54;;;;;;;7.15;6.45;;;36.60;47.60;;;;;;6264825;28;20304;-61
2021/06/25 07:46:58;;;;;;;7.90;6.80;;;35.70;48.40;;;;;;6273504;28;20223;-61
2021/06/25 07:50:03;;;;;;;7.65;6.85;;;34.80;50.00;;;;;;6273720;28;20264;-61
2021/06/25 07:53:10;;;;;;;7.40;6.45;;;34.10;50.80;;;;;;6273515;28;20239;-61
2021/06/25 07:56:14;;;;;;;7.63;6.93;;;33.80;52.10;;;;;;6275791;28;20242;-62
2021/06/25 07:59:18;;;;;;;7.60;6.80;;;34.00;51.90;;;;;;6278681;28;20230;-61
2021/06/25 08:02:22;;;;;;;7.63;6.90;;;33.90;51.20;;;;;;6278377;28;20230;-61
2021/06/25 08:05:26;;;;;;;7.72;6.25;;;33.50;51.40;;;;;;6279008;28;20238;-61
2021/06/25 08:08:29;;;;;;;6.78;6.18;;;33.30;51.50;;;;;;6278157;28;20227;-62
2021/06/25 08:11:32;;;;;;;8.18;6.35;;;32.80;52.00;;;;;;6278086;28;20254;-61
2021/06/25 08:14:36;;;;;;;6.10;5.60;;;32.30;52.50;;;;;;6276567;28;20571;-62
2021/06/25 08:17:40;;;;;;;6.25;5.65;;;32.20;53.20;;;;;;6276691;28;20238;-62
2021/06/25 08:20:44;;;;;;;6.53;6.00;;;32.30;53.50;;;;;;6274801;28;20686;-61
2021/06/25 08:23:47;;;;;;;6.20;5.60;;;32.30;53.40;;;;;;6275484;28;20234;-61
2021/06/25 08:26:51;;;;;;;7.97;6.15;;;32.00;53.00;;;;;;6277729;28;20230;-62
2021/06/25 08:29:55;;;;;;;6.68;5.80;;;32.00;53.40;;;;;;6278302;28;20234;-62
2021/06/25 08:33:00;;;;;;;9.30;6.57;;;32.20;52.90;;;;;;6289969;28;20590;-65
2021/06/25 08:36:04;;;;;;;6.30;5.70;;;31.30;55.00;;;;;;6297268;28;20661;-66
2021/06/25 08:39:09;;;;;;;6.55;5.93;;;30.50;56.00;;;;;;6277299;28;20671;-63
2021/06/25 08:42:14;;;;;;;8.17;6.80;;;30.40;56.90;;;;;;6277922;28;20237;-62
2021/06/25 08:45:17;;;;;;;6.67;6.07;;;30.20;58.10;;;;;;6277836;28;20234;-62
2021/06/25 08:48:25;;;;;;;8.93;8.00;;;29.80;59.30;;;;;;6272576;28;20226;-61
2021/06/25 08:51:28;;;;;;;9.10;5.83;;;30.10;58.90;;;;;;6277893;28;20227;-60
2021/06/25 08:54:33;;;;;;;6.03;5.43;;;30.10;57.90;;;;;;6277155;28;20226;-61
2021/06/25 08:57:37;;;;;;;7.45;6.70;;;30.40;57.80;;;;;;6277396;28;20301;-63
2021/06/25 09:00:42;;;;;;;6.70;5.63;;;30.80;57.40;;;;;;6277044;28;20242;-64
2021/06/25 09:03:53;;;;;;;7.75;6.40;;;30.90;56.90;;;;;;6277092;28;20682;-61
2021/06/25 09:06:56;;;;;;;7.97;5.75;;;31.30;55.80;;;;;;6275585;28;20235;-60
2021/06/25 09:10:00;;;;;;;6.78;5.68;;;31.40;56.00;;;;;;6276935;28;20292;-60
2021/06/25 09:13:09;;;;;;;6.47;5.97;;;30.60;55.20;;;;;;6276751;28;20263;-61
2021/06/25 09:16:24;;;;;;;6.93;6.00;;;30.40;56.60;;;;;;6276972;28;20219;-64
2021/06/25 09:19:28;;;;;;;7.55;5.25;;;30.60;55.50;;;;;;6276751;28;20226;-63
2021/06/25 09:22:32;;;;;;;6.55;5.22;;;30.70;55.20;;;;;;6276102;28;20238;-62
2021/06/25 09:25:51;;;;;;;6.50;5.90;;;30.80;55.00;;;;;;6274149;28;20560;-61
2021/06/25 09:29:06;;;;;;;5.47;4.97;;;31.30;54.60;;;;;;6276453;28;20571;-63
2021/06/25 09:32:11;;;;;;;6.32;5.00;;;31.50;53.60;;;;;;6276170;28;20242;-65
2021/06/25 09:35:18;;;;;;;9.55;5.57;;;31.20;53.50;;;;;;6276255;28;20226;-61
2021/06/25 09:38:32;;;;;;;5.35;4.85;;;31.10;53.40;;;;;;6271290;28;20573;-61
2021/06/25 09:41:37;;;;;;;6.78;5.85;;;31.00;52.80;;;;;;6276710;28;20227;-61
2021/06/25 09:44:40;;;;;;;5.95;4.70;;;30.80;53.20;;;;;;6275918;28;20219;-61
2021/06/25 09:47:45;;;;;;;5.97;5.32;;;30.40;54.10;;;;;;6276402;28;20230;-61
2021/06/25 09:50:50;;;;;;;5.20;4.70;;;30.40;54.70;;;;;;6275874;28;20231;-61
2021/06/25 09:54:08;;;;;;;5.20;4.90;;;30.30;54.30;;;;;;6271419;28;20578;-65
2021/06/25 09:57:13;;;;;;;5.03;4.60;;;30.30;55.40;;;;;;6276001;28;20254;-64
2021/06/25 10:00:23;;;;;;;5.45;4.95;;;30.90;54.40;;;;;;6276052;28;20234;-65
2021/06/25 10:03:25;;;;;;;5.88;4.75;;;31.00;53.20;;;;;;6275525;28;20227;-63
2021/06/25 10:06:31;;;;;;;5.30;4.75;;;31.10;52.60;;;;;;6276009;28;20264;-64
2021/06/25 10:09:35;;;;;;;10.02;4.68;;;31.30;52.50;;;;;;6275449;28;20242;-60
2021/06/25 10:12:40;;;;;;;7.70;5.10;;;31.60;52.30;;;;;;6275599;28;20314;-60
2021/06/25 10:15:43;;;;;;;5.50;5.00;;;31.70;51.50;;;;;;6275204;28;20231;-63
2021/06/25 10:18:49;;;;;;;7.70;5.35;;;31.90;52.90;;;;;;6274727;28;20237;-62
2021/06/25 10:21:55;;;;;;;6.70;4.63;;;31.90;54.50;;;;;;6275117;28;20318;-59
2021/06/25 10:24:58;;;;;;;8.38;5.50;;;31.90;55.50;;;;;;6275613;28;20276;-60
2021/06/25 10:28:03;;;;;;;6.95;5.50;;;31.70;55.60;;;;;;6273684;28;20226;-60
2021/06/25 10:31:08;;;;;;;5.78;4.55;;;31.40;55.30;;;;;;6272656;28;20655;-60
2021/06/25 10:34:11;;;;;;;7.10;4.70;;;31.10;55.00;;;;;;6274011;28;20290;-59
2021/06/25 10:37:21;;;;;;;6.23;4.43;;;30.70;56.60;;;;;;6273020;28;20214;-60
2021/06/25 10:40:26;;;;;;;4.90;4.50;;;30.30;57.20;;;;;;6272941;28;20222;-61
2021/06/25 10:43:49;;;;;;;4.97;4.47;;;30.00;57.50;;;;;;6274384;28;20223;-62
2021/06/25 10:46:53;;;;;;;5.13;4.57;;;29.80;57.90;;;;;;6249682;28;20232;-63
2021/06/25 10:50:32;;;;;;;7.43;5.00;;;29.70;58.30;;;;;;6249844;28;20673;-60
2021/06/25 10:53:37;;;;;;;5.87;4.67;;;29.80;58.70;;;;;;6249948;28;20227;-61
2021/06/25 10:57:01;;;;;;;5.60;4.43;;;29.80;58.90;;;;;;6245552;28;20240;-60
2021/06/25 11:00:06;;;;;;;5.60;4.17;;;29.70;59.30;;;;;;6249069;28;20244;-60
2021/06/25 11:03:37;;;;;;;4.53;3.83;;;29.60;58.80;;;;;;6249632;28;20227;-60
2021/06/25 11:06:55;;;;;;;7.00;3.97;;;29.60;58.80;;;;;;6249848;28;20223;-60
2021/06/25 11:10:06;;;;;;;6.30;4.13;;;29.80;58.40;;;;;;6249191;28;20694;-60
2021/06/25 11:13:21;;;;;;;4.87;4.40;;;29.90;58.20;;;;;;6249945;28;20222;-60
2021/06/25 11:16:25;;;;;;;4.50;4.07;;;29.80;58.90;;;;;;6249249;28;20235;-60
2021/06/25 11:19:39;;;;;;;4.47;4.00;;;30.00;58.40;;;;;;6249458;28;20238;-59
2021/06/25 11:22:42;;;;;;;4.50;3.80;;;30.10;57.80;;;;;;6249362;28;20227;-60
2021/06/25 11:25:51;;;;;;;7.63;4.10;;;30.50;57.80;;;;;;6262460;28;20226;-61
2021/06/25 11:28:55;;;;;;;3.85;3.55;;;30.90;58.00;;;;;;6273979;28;20817;-60
2021/06/25 11:32:10;;;;;;;6.32;4.43;;;31.20;56.50;;;;;;6277328;28;20562;-61
2021/06/25 11:35:35;;;;;;;5.43;4.47;;;31.20;56.50;;;;;;6298669;28;20785;-62
2021/06/25 11:38:58;;;;;;;4.53;4.13;;;31.20;56.70;;;;;;6284925;28;20557;-62
2021/06/25 11:42:05;;;;;;;4.68;3.75;;;31.30;55.90;;;;;;6274379;28;20230;-59
2021/06/25 11:45:09;;;;;;;4.63;4.00;;;31.30;56.20;;;;;;6261889;28;20683;-65
2021/06/25 11:48:13;;;;;;;4.72;3.97;;;31.20;56.20;;;;;;6231585;28;20239;-64
2021/06/25 11:51:19;;;;;;;7.07;4.78;;;31.20;56.10;;;;;;6260672;28;20227;-60
2021/06/25 11:54:23;;;;;;;6.13;4.63;;;31.20;56.40;;;;;;6273535;28;20284;-62
2021/06/25 11:57:30;;;;;;;6.55;4.20;;;31.00;57.60;;;;;;6273931;28;20235;-61
2021/06/25 12:00:36;;;;;;;4.40;4.00;;;30.90;58.80;;;;;;6269149;28;20230;-62
2021/06/25 12:03:43;;;;;;;4.63;4.23;;;30.60;56.70;;;;;;6273648;28;20266;-63
2021/06/25 12:06:51;;;;;;;5.07;4.67;;;29.70;58.60;;;;;;6273323;28;20223;-61
2021/06/25 12:09:55;;;;;;;5.30;4.80;;;29.40;59.60;;;;;;6273545;28;20242;-62
2021/06/25 12:13:01;;;;;;;7.40;5.30;;;29.30;64.00;;;;;;6273446;28;20223;-62
2021/06/25 12:16:10;;;;;;;6.43;5.20;;;29.20;66.80;;;;;;6273468;28;20227;-62
2021/06/25 12:19:14;;;;;;;7.43;5.17;;;29.10;68.50;;;;;;6273169;28;20671;-61
2021/06/25 12:22:18;;;;;;;6.00;4.80;;;28.80;70.30;;;;;;6273476;28;20203;-61
2021/06/25 12:25:33;;;;;;;9.83;6.00;;;28.70;71.20;;;;;;6270991;28;20203;-61
2021/06/25 12:28:37;;;;;;;6.70;6.07;;;28.40;75.80;;;;;;6248776;28;20723;-60
2021/06/25 12:31:41;;;;;;;6.80;6.10;;;28.10;79.00;;;;;;6255114;28;20227;-60
2021/06/25 12:34:44;;;;;;;10.03;6.80;;;27.70;83.10;;;;;;6298512;28;20222;-60
2021/06/25 12:37:50;;;;;;;10.07;6.83;;;27.20;86.40;;;;;;6290928;28;20608;-58
2021/06/25 12:40:55;;;;;;;3.90;2.50;;;23.90;94.30;;;;;;6273045;28;20235;-58
2021/06/25 12:43:59;;;;;;;3.77;3.30;;;22.00;99.90;;;;;;6275368;28;20246;-58
2021/06/25 12:47:05;;;;;;;4.17;3.77;;;21.20;99.90;;;;;;6275481;28;20258;-60
2021/06/25 12:50:09;;;;;;;4.43;4.03;;;20.90;99.90;;;;;;6274558;28;20240;-59
2021/06/25 12:53:18;;;;;;;6.00;5.40;;;20.80;99.90;;;;;;6275243;28;20227;-59
2021/06/25 12:56:23;;;;;;;5.40;4.90;;;20.80;99.90;;;;;;6275037;28;20263;-59
2021/06/25 12:59:29;;;;;;;5.90;3.33;;;20.90;99.90;;;;;;6276995;28;20254;-58
2021/06/25 13:02:35;;;;;;;3.50;3.20;;;20.90;99.90;;;;;;6276283;28;20235;-60
2021/06/25 13:05:39;;;;;;;4.80;4.00;;;21.10;99.90;;;;;;6277650;28;20224;-60
2021/06/25 13:08:43;;;;;;;4.37;3.97;;;21.20;99.90;;;;;;6277273;28;20231;-60
2021/06/25 13:11:47;;;;;;;5.50;5.00;;;21.40;99.90;;;;;;6277117;28;20243;-60
2021/06/25 13:14:54;;;;;;;5.20;4.20;;;21.40;99.90;;;;;;6277367;28;20250;-60
2021/06/25 13:17:58;;;;;;;7.60;4.57;;;21.70;99.90;;;;;;6276808;28;20541;-60
2021/06/25 13:21:40;;;;;;;6.10;5.27;;;22.00;99.90;;;;;;6277058;28;20243;-59
2021/06/25 13:25:24;;;;;;;5.10;4.53;;;22.30;99.90;;;;;;6277254;28;20231;-60
2021/06/25 13:28:27;;;;;;;7.97;5.00;;;22.70;99.90;;;;;;6276088;28;20239;-62
2021/06/25 13:31:31;;;;;;;5.13;4.63;;;22.90;99.90;;;;;;6277192;28;20227;-62
2021/06/25 13:34:35;;;;;;;11.20;5.50;;;22.90;99.90;;;;;;6276850;28;20224;-63
2021/06/25 13:37:44;;;;;;;5.80;5.10;;;23.00;99.90;;;;;;6276648;28;20227;-62
2021/06/25 13:40:50;;;;;;;9.50;5.30;;;23.10;99.90;;;;;;6276289;28;20556;-63
2021/06/25 13:43:55;;;;;;;4.43;3.90;;;23.10;99.90;;;;;;6276729;28;20227;-62
2021/06/25 13:47:06;;;;;;;4.80;4.40;;;23.40;99.90;;;;;;6276263;28;20290;-63
2021/06/25 13:50:10;;;;;;;4.00;3.70;;;23.70;99.90;;;;;;6276603;28;20242;-62
2021/06/25 13:53:29;;;;;;;8.70;4.20;;;23.90;99.90;;;;;;6275493;28;20246;-63
2021/06/25 13:56:37;;;;;;;3.60;3.40;;;24.00;99.90;;;;;;6276439;28;20239;-63
2021/06/25 13:59:41;;;;;;;3.80;3.47;;;24.10;99.90;;;;;;6276090;28;20319;-63
2021/06/25 14:02:50;;;;;;;3.80;3.20;;;24.10;99.90;;;;;;6276214;28;20559;-62
2021/06/25 14:06:01;;;;;;;3.23;2.93;;;24.30;99.90;;;;;;6276130;28;20242;-62
2021/06/25 14:09:05;;;;;;;3.80;3.40;;;24.50;99.70;;;;;;6276088;28;20604;-63
2021/06/25 14:12:11;;;;;;;3.40;3.20;;;24.70;99.80;;;;;;6276134;28;20228;-63
2021/06/25 14:15:14;;;;;;;4.20;3.80;;;24.80;99.40;;;;;;6275856;28;20318;-63
2021/06/25 14:18:20;;;;;;;4.30;3.53;;;25.10;98.70;;;;;;6275489;28;20232;-63
2021/06/25 14:21:25;;;;;;;3.40;3.07;;;25.00;98.30;;;;;;6275810;28;20232;-63
2021/06/25 14:24:28;;;;;;;3.53;3.23;;;24.90;97.60;;;;;;6275393;28;20235;-63
2021/06/25 14:27:39;;;;;;;3.63;3.33;;;24.90;98.20;;;;;;6275406;28;20667;-63
2021/06/25 14:30:42;;;;;;;4.37;3.40;;;25.10;98.00;;;;;;6275061;28;20239;-63
2021/06/25 14:33:47;;;;;;;2.97;2.77;;;25.20;97.30;;;;;;6275160;28;20223;-63
2021/06/25 14:36:50;;;;;;;3.00;2.77;;;25.30;97.80;;;;;;6274878;28;20620;-64
2021/06/25 14:39:53;;;;;;;3.57;3.23;;;25.30;97.00;;;;;;6275192;28;20239;-63
2021/06/25 14:42:56;;;;;;;4.50;3.90;;;25.40;97.60;;;;;;6274888;28;20694;-63
2021/06/25 14:46:01;;;;;;;4.60;3.73;;;25.30;97.50;;;;;;6275360;28;20234;-63
2021/06/25 14:49:06;;;;;;;5.30;3.83;;;25.30;97.30;;;;;;6274817;28;20238;-64
2021/06/25 14:52:09;;;;;;;3.63;3.33;;;25.40;97.70;;;;;;6274306;28;20223;-62
2021/06/25 14:55:13;;;;;;;3.83;3.53;;;25.60;97.20;;;;;;6275351;28;20206;-62
2021/06/25 14:58:16;;;;;;;4.93;3.67;;;26.00;96.80;;;;;;6274319;28;20223;-62
2021/06/25 15:01:20;;;;;;;5.10;3.40;;;26.10;96.00;;;;;;6274734;28;20202;-62
2021/06/25 15:04:24;;;;;;;3.63;3.33;;;26.00;96.00;;;;;;6274670;28;20222;-62
2021/06/25 15:07:28;;;;;;;4.30;4.00;;;25.70;96.30;;;;;;6275239;28;20231;-63
2021/06/25 15:10:31;;;;;;;6.37;3.37;;;25.50;95.20;;;;;;6269577;28;20239;-63
2021/06/25 15:13:35;;;;;;;3.63;3.33;;;25.10;95.70;;;;;;6274519;28;20231;-61
2021/06/25 15:16:39;;;;;;;4.80;2.50;;;25.00;95.50;;;;;;6273699;28;20238;-62
2021/06/25 15:19:43;;;;;;;3.53;3.17;;;25.00;95.80;;;;;;6274715;28;20306;-62
2021/06/25 15:22:46;;;;;;;2.70;2.50;;;25.00;95.40;;;;;;6274456;28;20219;-62
2021/06/25 15:25:50;;;;;;;4.20;3.60;;;25.00;96.00;;;;;;6274659;28;20231;-62
2021/06/25 15:28:54;;;;;;;2.97;2.73;;;25.00;95.30;;;;;;6274067;28;20242;-64
2021/06/25 15:31:57;;;;;;;2.70;2.43;;;25.00;95.30;;;;;;6274284;28;20219;-63
2021/06/25 15:35:04;;;;;;;3.20;2.90;;;25.20;95.20;;;;;;6273546;28;20227;-62
2021/06/25 15:38:08;;;;;;;4.20;2.53;;;25.30;95.20;;;;;;6273743;28;20266;-64
2021/06/25 15:41:13;;;;;;;2.50;2.30;;;25.40;95.00;;;;;;6273384;28;20411;-61
2021/06/25 15:44:17;;;;;;;3.60;3.00;;;25.50;94.80;;;;;;6272364;28;20690;-63
2021/06/25 15:47:20;;;;;;;2.70;2.50;;;25.70;94.50;;;;;;6272964;28;20218;-61
2021/06/25 15:50:25;;;;;;;2.60;2.40;;;25.90;93.80;;;;;;6273029;28;20245;-61
2021/06/25 15:53:28;;;;;;;2.60;2.40;;;26.10;94.10;;;;;;6272771;28;20223;-62
2021/06/25 15:56:32;;;;;;;14.23;3.60;;;26.20;93.50;;;;;;6273380;28;20230;-62
2021/06/25 15:59:35;;;;;;;2.47;2.27;;;26.30;92.00;;;;;;6270566;28;20234;-62
2021/06/25 16:02:39;;;;;;;3.37;2.70;;;26.20;91.40;;;;;;6272894;28;20223;-61
2021/06/25 16:05:43;;;;;;;3.30;2.70;;;26.10;91.50;;;;;;6272965;28;20219;-61
2021/06/25 16:08:51;;;;;;;2.40;2.20;;;26.00;91.80;;;;;;6273752;28;20241;-62
2021/06/25 16:11:55;;;;;;;2.50;2.30;;;25.90;91.80;;;;;;6274268;28;20233;-61